Time;durP1;ratioP1;P1;durP2;ratioP2;P2;SDS_P1;SDS_P2;PMS_P1;PMS_P2;Temp;Humidity;BMP_temperature;BMP_pressure;BME280_temperature;BME280_humidity;BME280_pressure;Samples;Min_cycle;Max_cycle;Signal;HPM_P1;HPM_P2
2022/05/13 00:00:11;;;;;;;;;;;;;;;;;;2576062;23;19914;-92
2022/05/13 00:01:11;;;;;;;;;;;;;;;;;;2587750;22;19903;-90
2022/05/13 00:02:14;;;;;;;;;;;;;;;;;;2588015;23;19931;-90
2022/05/13 00:03:24;;;;;;;;;;;;;;;;;;2583046;23;19904;-92
2022/05/13 00:04:34;;;;;;;;;;;;;;;;;;2585667;23;19903;-91
2022/05/13 00:05:34;;;;;;;;;;;;;;;;;;2572452;23;19915;-91
2022/05/13 00:06:38;;;;;;;;;;;;;;;;;;2570769;23;19904;-91
2022/05/13 00:07:48;;;;;;;;;;;;;;;;;;2576200;23;19911;-93
2022/05/13 00:08:48;;;;;;;;;;;;;;;;;;2575347;23;19903;-92
2022/05/13 00:09:59;;;;;;;;;;;;;;;;;;2574863;23;19903;-92
2022/05/13 00:11:02;;;;;;;;;;;;;;;;;;2587827;22;19914;-92
2022/05/13 00:12:31;;;;;;;;;;;;;;;;;;2570698;23;20227;-93
2022/05/13 00:13:36;;;;;;;;;;;;;;;;;;2576097;23;20234;-93
2022/05/13 00:14:39;;;;;;;;;;;;;;;;;;2570621;23;19912;-91
2022/05/13 00:15:42;;;;;;;;;;;;;;;;;;2558623;23;19915;-91
2022/05/13 00:17:10;;;;;;;;;;;;;;;;;;2570864;23;20096;-91
2022/05/13 00:18:11;;;;;;;;;;;;;;;;;;2587680;23;19949;-93
2022/05/13 00:19:16;;;;;;;;;;;;;;;;;;2587799;23;19903;-92
2022/05/13 00:20:17;;;;;;;;;;;;;;;;;;2587991;23;19913;-92
2022/05/13 00:21:19;;;;;;;;;;;;;;;;;;2582981;22;19919;-92
2022/05/13 00:22:22;;;;;;;;;;;;;;;;;;2583304;23;19938;-92
2022/05/13 00:23:23;;;;;;;;;;;;;;;;;;2587913;23;19929;-91
2022/05/13 00:24:34;;;;;;;;;;;;;;;;;;2587948;23;19942;-91
2022/05/13 00:25:43;;;;;;;;;;;;;;;;;;2587782;23;19904;-91
2022/05/13 00:26:45;;;;;;;;;;;;;;;;;;2587980;23;20310;-91
2022/05/13 00:27:46;;;;;;;;;;;;;;;;;;2587683;23;20056;-92
2022/05/13 00:28:46;;;;;;;;;;;;;;;;;;2570623;23;19904;-92
2022/05/13 00:29:55;;;;;;;;;;;;;;;;;;2570717;23;20294;-92
2022/05/13 00:31:01;;;;;;;;;;;;;;;;;;2570443;23;19978;-92
2022/05/13 00:32:11;;;;;;;;;;;;;;;;;;2559142;23;19904;-92
2022/05/13 00:33:23;;;;;;;;;;;;;;;;;;2563371;23;19908;-92
2022/05/13 00:34:44;;;;;;;;;;;;;;;;;;2564461;23;19904;-92
2022/05/13 00:35:53;;;;;;;;;;;;;;;;;;2574632;23;20298;-92
2022/05/13 00:37:03;;;;;;;;;;;;;;;;;;2587800;23;20429;-91
2022/05/13 00:38:14;;;;;;;;;;;;;;;;;;2587841;23;19903;-92
2022/05/13 00:39:27;;;;;;;;;;;;;;;;;;;;;
2022/05/13 00:40:37;;;;;;;;;;;;;;;;;;;;;
2022/05/13 00:41:48;;;;;;;;;;;;;;;;;;;;;
2022/05/13 00:42:59;;;;;;;;;;;;;;;;;;2587738;23;19907;-92
2022/05/13 00:44:05;;;;;;;;;;;;;;;;;;2574708;23;19904;-92
2022/05/13 00:45:06;;;;;;;;;;;;;;;;;;2575664;23;19922;-91
2022/05/13 00:46:11;;;;;;;;;;;;;;;;;;2587313;23;20322;-92
2022/05/13 00:47:14;;;;;;;;;;;;;;;;;;2587844;23;19935;-92
2022/05/13 00:48:16;;;;;;;;;;;;;;;;;;2587410;23;19981;-92
2022/05/13 00:49:27;;;;;;;;;;;;;;;;;;;;;
2022/05/13 00:50:31;;;;;;;;;;;;;;;;;;2587862;23;19904;-92
2022/05/13 00:51:57;;;;;;;;;;;;;;;;;;;;;
2022/05/13 00:53:00;;;;;;;;;;;;;;;;;;2587650;23;19979;-91
2022/05/13 00:54:05;;;;;;;;;;;;;;;;;;2587683;23;19907;-91
2022/05/13 00:55:20;;;;;;;;;;;;;;;;;;2586711;23;19914;-92
2022/05/13 00:56:40;;;;;;;;;;;;;;;;;;2570412;23;19903;-92
2022/05/13 00:57:44;;;;;;;;;;;;;;;;;;2578872;23;19944;-93
2022/05/13 00:58:46;;;;;;;;;;;;;;;;;;2587641;23;19909;-92
2022/05/13 01:00:04;;;;;;;;;;;;;;;;;;2587713;23;19915;-92
2022/05/13 01:01:05;;;;;;;;;;;;;;;;;;2587606;22;19942;-92
2022/05/13 01:02:11;;;;;;;;;;;;;;;;;;2583952;23;19948;-91
2022/05/13 01:03:14;;;;;;;;;;;;;;;;;;2587750;23;20227;-91
2022/05/13 01:05:59;;;;;;;;;;;;;;;;;;2583510;23;20409;-90
2022/05/13 01:07:03;;;;;;;;;;;;;;;;;;2587769;23;19982;-91
2022/05/13 01:08:06;;;;;;;;;;;;;;;;;;2587546;23;19908;-91
2022/05/13 01:09:09;;;;;;;;;;;;;;;;;;2570658;23;19985;-90
2022/05/13 01:10:22;;;;;;;;;;;;;;;;;;2570855;23;19908;-90
2022/05/13 01:11:26;;;;;;;;;;;;;;;;;;2587248;22;20341;-91
2022/05/13 01:12:55;;;;;;;;;;;;;;;;;;2587647;23;19918;-93
2022/05/13 01:14:15;;;;;;;;;;;;;;;;;;;;;
2022/05/13 01:15:54;;;;;;;;;;;;;;;;;;;;;
2022/05/13 01:20:10;;;;;;;;;;;;;;;;;;2575110;23;20298;-92
2022/05/13 01:21:23;;;;;;;;;;;;;;;;;;2569613;23;19904;-93
2022/05/13 01:22:35;;;;;;;;;;;;;;;;;;2564090;23;19975;-93
2022/05/13 01:23:57;;;;;;;;;;;;;;;;;;;;;
2022/05/13 01:25:10;;;;;;;;;;;;;;;;;;;;;
2022/05/13 01:26:45;;;;;;;;;;;;;;;;;;;;;
2022/05/13 01:27:52;;;;;;;;;;;;;;;;;;2574073;23;19903;-94
2022/05/13 01:29:02;;;;;;;;;;;;;;;;;;2581313;23;19957;-94
2022/05/13 01:30:13;;;;;;;;;;;;;;;;;;2570143;23;19963;-92
2022/05/13 01:31:26;;;;;;;;;;;;;;;;;;2574147;23;19978;-93
2022/05/13 01:32:29;;;;;;;;;;;;;;;;;;2580236;23;19950;-95
2022/05/13 01:34:06;;;;;;;;;;;;;;;;;;2574674;23;19908;-94
2022/05/13 01:35:09;;;;;;;;;;;;;;;;;;2577526;23;20307;-93
2022/05/13 01:36:12;;;;;;;;;;;;;;;;;;2587494;23;19914;-93
2022/05/13 01:37:13;;;;;;;;;;;;;;;;;;2570217;23;19938;-93
2022/05/13 01:38:24;;;;;;;;;;;;;;;;;;;;;
2022/05/13 01:39:44;;;;;;;;;;;;;;;;;;2587573;23;19986;-93
2022/05/13 01:41:03;;;;;;;;;;;;;;;;;;2587505;23;20008;-93
2022/05/13 01:42:04;;;;;;;;;;;;;;;;;;2587544;23;19984;-92
2022/05/13 01:43:04;;;;;;;;;;;;;;;;;;2587514;23;19903;-93
2022/05/13 01:44:10;;;;;;;;;;;;;;;;;;2587614;23;20234;-94
2022/05/13 01:45:38;;;;;;;;;;;;;;;;;;2587371;23;19903;-93
2022/05/13 01:46:54;;;;;;;;;;;;;;;;;;;;;
2022/05/13 01:48:25;;;;;;;;;;;;;;;;;;;;;
2022/05/13 01:49:17;;;;;;;;;;;;;;;;;;2576049;23;19918;-95
2022/05/13 01:50:26;;;;;;;;;;;;;;;;;;2582664;23;20346;-94
2022/05/13 01:51:57;;;;;;;;;;;;;;;;;;2583635;22;19911;-94
2022/05/13 01:53:00;;;;;;;;;;;;;;;;;;2571405;23;19903;-94
2022/05/13 01:54:04;;;;;;;;;;;;;;;;;;2574803;23;19949;-95
2022/05/13 01:55:09;;;;;;;;;;;;;;;;;;2587782;23;19978;-96
2022/05/13 01:56:13;;;;;;;;;;;;;;;;;;2587680;23;19907;-94
2022/05/13 01:57:22;;;;;;;;;;;;;;;;;;2587800;23;19911;-94
2022/05/13 01:58:26;;;;;;;;;;;;;;;;;;2586887;23;19943;-93
2022/05/13 01:59:29;;;;;;;;;;;;;;;;;;2587004;23;19941;-94
2022/05/13 02:00:48;;;;;;;;;;;;;;;;;;2587485;23;19911;-92
2022/05/13 02:01:54;;;;;;;;;;;;;;;;;;2587801;23;19911;-93
2022/05/13 02:04:37;;;;;;;;;;;;;;;;;;2587076;23;19904;-94
2022/05/13 02:05:37;;;;;;;;;;;;;;;;;;2587484;23;19904;-93
2022/05/13 02:07:01;;;;;;;;;;;;;;;;;;2587544;23;20349;-94
2022/05/13 02:08:03;;;;;;;;;;;;;;;;;;2582596;23;19911;-93
2022/05/13 02:09:09;;;;;;;;;;;;;;;;;;2570346;23;19904;-93
2022/05/13 02:10:12;;;;;;;;;;;;;;;;;;2574747;23;19912;-92
2022/05/13 02:11:19;;;;;;;;;;;;;;;;;;2587240;22;19915;-92
2022/05/13 02:12:19;;;;;;;;;;;;;;;;;;2587402;23;19915;-92
2022/05/13 02:13:22;;;;;;;;;;;;;;;;;;2587558;23;19982;-92
2022/05/13 02:14:26;;;;;;;;;;;;;;;;;;2570089;23;20315;-92
2022/05/13 02:15:29;;;;;;;;;;;;;;;;;;2570597;23;20235;-92
2022/05/13 02:16:29;;;;;;;;;;;;;;;;;;2587009;23;19923;-93
2022/05/13 02:17:36;;;;;;;;;;;;;;;;;;2570103;23;19943;-93
2022/05/13 02:18:38;;;;;;;;;;;;;;;;;;2575550;23;19911;-91
2022/05/13 02:19:47;;;;;;;;;;;;;;;;;;2588105;23;20323;-92
2022/05/13 02:20:48;;;;;;;;;;;;;;;;;;2589238;22;19903;-92
2022/05/13 02:21:51;;;;;;;;;;;;;;;;;;2583515;23;20322;-91
2022/05/13 02:22:54;;;;;;;;;;;;;;;;;;2582963;23;19914;-92
2022/05/13 02:23:59;;;;;;;;;;;;;;;;;;2582732;23;19969;-91
2022/05/13 02:25:02;;;;;;;;;;;;;;;;;;2581785;23;19915;-92
2022/05/13 02:26:23;;;;;;;;;;;;;;;;;;2570119;23;19904;-91
2022/05/13 02:27:32;;;;;;;;;;;;;;;;;;2561102;23;19944;-91
2022/05/13 02:28:47;;;;;;;;;;;;;;;;;;2575900;23;19907;-92
2022/05/13 02:30:15;;;;;;;;;;;;;;;;;;2582693;23;19994;-92
2022/05/13 02:31:26;;;;;;;;;;;;;;;;;;2571913;23;19918;-92
2022/05/13 02:32:29;;;;;;;;;;;;;;;;;;2576265;23;19987;-92
2022/05/13 02:33:33;;;;;;;;;;;;;;;;;;2581754;23;19911;-91
2022/05/13 02:34:37;;;;;;;;;;;;;;;;;;2574877;23;19915;-91
2022/05/13 02:35:59;;;;;;;;;;;;;;;;;;2587443;23;19903;-91
2022/05/13 02:37:00;;;;;;;;;;;;;;;;;;2582407;23;20215;-91
2022/05/13 02:38:16;;;;;;;;;;;;;;;;;;2582276;23;19997;-91
2022/05/13 02:39:22;;;;;;;;;;;;;;;;;;2587039;23;19904;-91
2022/05/13 02:41:51;;;;;;;;;;;;;;;;;;2587604;23;19911;-91
2022/05/13 02:42:51;;;;;;;;;;;;;;;;;;2570081;23;19907;-90
2022/05/13 02:43:53;;;;;;;;;;;;;;;;;;2557255;23;20311;-92
2022/05/13 02:45:03;;;;;;;;;;;;;;;;;;;;;
2022/05/13 02:46:11;;;;;;;;;;;;;;;;;;2586658;23;19903;-91
2022/05/13 02:47:24;;;;;;;;;;;;;;;;;;;;;
2022/05/13 02:48:44;;;;;;;;;;;;;;;;;;2576414;23;19908;-91
2022/05/13 02:53:00;;;;;;;;;;;;;;;;;;2582812;23;20219;-91
2022/05/13 02:54:21;;;;;;;;;;;;;;;;;;2582361;23;19918;-93
2022/05/13 02:55:41;;;;;;;;;;;;;;;;;;2581258;23;19935;-92
2022/05/13 02:56:45;;;;;;;;;;;;;;;;;;2567589;23;19903;-92
2022/05/13 02:59:36;;;;;;;;;;;;;;;;;;2575026;23;20078;-92
2022/05/13 03:01:20;;;;;;;;;;;;;;;;;;2582529;23;19935;-92
2022/05/13 03:02:22;;;;;;;;;;;;;;;;;;2582432;23;20333;-92
2022/05/13 03:04:55;;;;;;;;;;;;;;;;;;;;;
2022/05/13 03:07:48;;;;;;;;;;;;;;;;;;2582681;23;19904;-90
2022/05/13 03:09:12;;;;;;;;;;;;;;;;;;2582247;23;19945;-91
2022/05/13 03:10:36;;;;;;;;;;;;;;;;;;2586966;23;19904;-94
2022/05/13 03:11:46;;;;;;;;;;;;;;;;;;2587425;22;19904;-92
2022/05/13 03:12:56;;;;;;;;;;;;;;;;;;;;;
2022/05/13 03:13:59;;;;;;;;;;;;;;;;;;2576149;23;20346;-91
2022/05/13 03:15:21;;;;;;;;;;;;;;;;;;2587372;23;20226;-92
2022/05/13 03:16:47;;;;;;;;;;;;;;;;;;2587250;23;19914;-91
2022/05/13 03:17:50;;;;;;;;;;;;;;;;;;2582408;23;19932;-92
2022/05/13 03:19:02;;;;;;;;;;;;;;;;;;2583247;23;20108;-92
2022/05/13 03:21:49;;;;;;;;;;;;;;;;;;2574080;23;20345;-91
2022/05/13 03:24:35;;;;;;;;;;;;;;;;;;2582804;23;19926;-90
2022/05/13 03:26:09;;;;;;;;;;;;;;;;;;;;;
2022/05/13 03:28:52;;;;;;;;;;;;;;;;;;2583447;23;19986;-91
2022/05/13 03:29:54;;;;;;;;;;;;;;;;;;2570420;23;20373;-91
2022/05/13 03:31:18;;;;;;;;;;;;;;;;;;2571002;23;19904;-91
2022/05/13 03:32:27;;;;;;;;;;;;;;;;;;2571399;23;19908;-90
2022/05/13 03:33:48;;;;;;;;;;;;;;;;;;;;;
2022/05/13 03:34:51;;;;;;;;;;;;;;;;;;2586121;23;19982;-91
2022/05/13 03:36:01;;;;;;;;;;;;;;;;;;2591290;23;20285;-90
2022/05/13 03:37:15;;;;;;;;;;;;;;;;;;2595646;23;19917;-89
2022/05/13 03:38:24;;;;;;;;;;;;;;;;;;2584189;23;19907;-91
2022/05/13 03:41:16;;;;;;;;;;;;;;;;;;2572158;22;20278;-90
2022/05/13 03:42:28;;;;;;;;;;;;;;;;;;2581987;23;20287;-90
2022/05/13 03:46:32;;;;;;;;;;;;;;;;;;2583793;23;20080;-89
2022/05/13 03:47:38;;;;;;;;;;;;;;;;;;2588188;23;19986;-90
2022/05/13 03:48:40;;;;;;;;;;;;;;;;;;2588032;23;19986;-89
2022/05/13 03:49:56;;;;;;;;;;;;;;;;;;;;;
2022/05/13 03:50:56;;;;;;;;;;;;;;;;;;2587669;22;20332;-91
2022/05/13 03:52:20;;;;;;;;;;;;;;;;;;2583195;23;19946;-92
2022/05/13 03:53:28;;;;;;;;;;;;;;;;;;2587840;23;19911;-89
2022/05/13 03:54:46;;;;;;;;;;;;;;;;;;2587935;23;19903;-89
2022/05/13 03:57:12;;;;;;;;;;;;;;;;;;2575723;23;20230;-91
2022/05/13 03:58:23;;;;;;;;;;;;;;;;;;2583162;23;19939;-90
2022/05/13 03:59:30;;;;;;;;;;;;;;;;;;2586471;23;19914;-91
2022/05/13 04:00:42;;;;;;;;;;;;;;;;;;2560234;23;19958;-92
2022/05/13 04:01:51;;;;;;;;;;;;;;;;;;2573863;23;19912;-89
2022/05/13 04:02:54;;;;;;;;;;;;;;;;;;2570678;23;20002;-90
2022/05/13 04:09:52;;;;;;;;;;;;;;;;;;2587910;23;19903;-91
2022/05/13 04:11:08;;;;;;;;;;;;;;;;;;;;;
2022/05/13 04:17:23;;;;;;;;;;;;;;;;;;2587955;23;19903;-91
2022/05/13 04:20:21;;;;;;;;;;;;;;;;;;;;;
2022/05/13 04:21:30;;;;;;;;;;;;;;;;;;2587385;22;19908;-90
2022/05/13 04:22:50;;;;;;;;;;;;;;;;;;;;;
2022/05/13 04:24:13;;;;;;;;;;;;;;;;;;2587654;23;20230;-91
2022/05/13 04:25:19;;;;;;;;;;;;;;;;;;2563865;23;19995;-91
2022/05/13 04:30:00;;;;;;;;;;;;;;;;;;2572341;23;19978;-89
2022/05/13 04:33:58;;;;;;;;;;;;;;;;;;2567948;23;20061;-91
2022/05/13 04:35:19;;;;;;;;;;;;;;;;;;2588041;23;19903;-91
2022/05/13 04:36:57;;;;;;;;;;;;;;;;;;2583307;23;19934;-89
2022/05/13 04:38:27;;;;;;;;;;;;;;;;;;2580031;23;19903;-90
2022/05/13 04:39:29;;;;;;;;;;;;;;;;;;2571246;23;19903;-91
2022/05/13 04:43:34;;;;;;;;;;;;;;;;;;2587648;23;19908;-91
2022/05/13 04:45:06;;;;;;;;;;;;;;;;;;;;;
2022/05/13 04:46:06;;;;;;;;;;;;;;;;;;2572576;23;19904;-91
2022/05/13 04:48:38;;;;;;;;;;;;;;;;;;2587498;23;19911;-91
2022/05/13 04:49:56;;;;;;;;;;;;;;;;;;;;;
2022/05/13 04:51:17;;;;;;;;;;;;;;;;;;;;;
2022/05/13 04:52:47;;;;;;;;;;;;;;;;;;2575020;23;20308;-90
2022/05/13 04:54:34;;;;;;;;;;;;;;;;;;2567809;23;20357;-90
2022/05/13 04:57:12;;;;;;;;;;;;;;;;;;;;;
2022/05/13 04:58:42;;;;;;;;;;;;;;;;;;2574854;23;19903;-90
2022/05/13 04:59:56;;;;;;;;;;;;;;;;;;2569910;23;19993;-91
2022/05/13 05:01:04;;;;;;;;;;;;;;;;;;2574659;23;19914;-90
2022/05/13 05:02:12;;;;;;;;;;;;;;;;;;2574905;23;19924;-91
2022/05/13 05:03:16;;;;;;;;;;;;;;;;;;2574878;23;19962;-91
2022/05/13 05:08:19;;;;;;;;;;;;;;;;;;2505613;23;20230;-91
2022/05/13 05:11:07;;;;;;;;;;;;;;;;;;2559514;23;20311;-91
2022/05/13 05:12:26;;;;;;;;;;;;;;;;;;2570279;23;19907;-91
2022/05/13 05:15:36;;;;;;;;;;;;;;;;;;2559600;23;19927;-91
2022/05/13 05:17:06;;;;;;;;;;;;;;;;;;2574884;23;20315;-91
2022/05/13 05:18:18;;;;;;;;;;;;;;;;;;2569942;23;19908;-91
2022/05/13 05:19:20;;;;;;;;;;;;;;;;;;2574815;23;19918;-91
2022/05/13 05:20:49;;;;;;;;;;;;;;;;;;2574938;23;20715;-92
2022/05/13 05:21:55;;;;;;;;;;;;;;;;;;2570271;23;19904;-91
2022/05/13 05:23:28;;;;;;;;;;;;;;;;;;;;;
2022/05/13 05:24:41;;;;;;;;;;;;;;;;;;2572726;23;19978;-91
2022/05/13 05:25:53;;;;;;;;;;;;;;;;;;2570402;23;19907;-91
2022/05/13 05:27:19;;;;;;;;;;;;;;;;;;2574666;23;19930;-92
2022/05/13 05:30:01;;;;;;;;;;;;;;;;;;2545358;23;19908;-92
2022/05/13 05:31:11;;;;;;;;;;;;;;;;;;;;;
2022/05/13 05:32:23;;;;;;;;;;;;;;;;;;2574859;23;19918;-92
2022/05/13 05:33:26;;;;;;;;;;;;;;;;;;2561377;23;19904;-91
2022/05/13 05:34:44;;;;;;;;;;;;;;;;;;2562440;23;19930;-91
2022/05/13 05:36:06;;;;;;;;;;;;;;;;;;2561886;23;20079;-93
2022/05/13 05:37:18;;;;;;;;;;;;;;;;;;2537592;23;19986;-92
2022/05/13 05:38:28;;;;;;;;;;;;;;;;;;2564021;23;20228;-94
2022/05/13 05:39:48;;;;;;;;;;;;;;;;;;2574479;23;19915;-93
2022/05/13 05:40:58;;;;;;;;;;;;;;;;;;;;;
2022/05/13 05:42:05;;;;;;;;;;;;;;;;;;2563768;23;20304;-92
2022/05/13 05:43:38;;;;;;;;;;;;;;;;;;2575008;23;20034;-93
2022/05/13 05:44:46;;;;;;;;;;;;;;;;;;2569212;23;20389;-92
2022/05/13 05:46:03;;;;;;;;;;;;;;;;;;2570110;23;19904;-93
2022/05/13 05:47:16;;;;;;;;;;;;;;;;;;2574765;23;19904;-91
2022/05/13 05:49:59;;;;;;;;;;;;;;;;;;;;;
2022/05/13 05:52:45;;;;;;;;;;;;;;;;;;2570350;23;19908;-95
2022/05/13 05:58:15;;;;;;;;;;;;;;;;;;2575981;23;19931;-92
2022/05/13 05:59:26;;;;;;;;;;;;;;;;;;;;;
2022/05/13 06:00:42;;;;;;;;;;;;;;;;;;;;;
2022/05/13 06:01:50;;;;;;;;;;;;;;;;;;2574900;23;19943;-87
2022/05/13 06:03:13;;;;;;;;;;;;;;;;;;2574314;23;19915;-89
2022/05/13 06:07:36;;;;;;;;;;;;;;;;;;;;;
2022/05/13 06:08:39;;;;;;;;;;;;;;;;;;2574679;23;20313;-90
2022/05/13 06:09:46;;;;;;;;;;;;;;;;;;2557572;23;19904;-90
2022/05/13 06:13:42;;;;;;;;;;;;;;;;;;2559561;23;19903;-87
2022/05/13 06:14:55;;;;;;;;;;;;;;;;;;2570072;23;19904;-90
2022/05/13 06:16:07;;;;;;;;;;;;;;;;;;2557596;23;19904;-86
2022/05/13 06:17:20;;;;;;;;;;;;;;;;;;2550942;23;19916;-87
2022/05/13 06:18:22;;;;;;;;;;;;;;;;;;2560166;23;20382;-89
2022/05/13 06:19:43;;;;;;;;;;;;;;;;;;2574806;23;19911;-85
2022/05/13 06:20:44;;;;;;;;;;;;;;;;;;2574416;23;20212;-88
2022/05/13 06:21:44;;;;;;;;;;;;;;;;;;2574763;23;19910;-85
2022/05/13 06:22:57;;;;;;;;;;;;;;;;;;2574846;23;19911;-86
2022/05/13 06:25:58;;;;;;;;;;;;;;;;;;2554299;23;19973;-86
2022/05/13 06:27:36;;;;;;;;;;;;;;;;;;2574116;23;20260;-89
2022/05/13 06:28:38;;;;;;;;;;;;;;;;;;2574703;23;19918;-89
2022/05/13 06:29:52;;;;;;;;;;;;;;;;;;2570194;23;19978;-91
2022/05/13 06:30:55;;;;;;;;;;;;;;;;;;2573848;23;19904;-88
2022/05/13 06:32:17;;;;;;;;;;;;;;;;;;2574659;23;20299;-89
2022/05/13 06:33:32;;;;;;;;;;;;;;;;;;2570135;23;19903;-86
2022/05/13 06:34:57;;;;;;;;;;;;;;;;;;2572756;23;20327;-89
2022/05/13 06:36:00;;;;;;;;;;;;;;;;;;2557577;23;19908;-87
2022/05/13 06:37:09;;;;;;;;;;;;;;;;;;2558177;23;19918;-86
2022/05/13 06:38:16;;;;;;;;;;;;;;;;;;2574341;23;19961;-85
2022/05/13 06:40:42;;;;;;;;;;;;;;;;;;2554742;23;20292;-87
2022/05/13 06:42:00;;;;;;;;;;;;;;;;;;;;;
2022/05/13 06:43:20;;;;;;;;;;;;;;;;;;2574932;23;19914;-88
2022/05/13 06:44:41;;;;;;;;;;;;;;;;;;2569618;23;20286;-87
2022/05/13 06:45:47;;;;;;;;;;;;;;;;;;2574319;23;19982;-87
2022/05/13 06:47:14;;;;;;;;;;;;;;;;;;;;;
2022/05/13 06:48:18;;;;;;;;;;;;;;;;;;2574452;23;19919;-88
2022/05/13 06:49:28;;;;;;;;;;;;;;;;;;;;;
2022/05/13 06:50:43;;;;;;;;;;;;;;;;;;;;;
2022/05/13 06:53:35;;;;;;;;;;;;;;;;;;2544802;23;19905;-87
2022/05/13 06:54:46;;;;;;;;;;;;;;;;;;2575634;23;20242;-89
2022/05/13 06:55:46;;;;;;;;;;;;;;;;;;2575534;23;19904;-87
2022/05/13 06:56:54;;;;;;;;;;;;;;;;;;2575652;23;19915;-87
2022/05/13 06:57:55;;;;;;;;;;;;;;;;;;2575665;23;19903;-88
2022/05/13 06:59:00;;;;;;;;;;;;;;;;;;2575863;23;19904;-87
2022/05/13 07:00:03;;;;;;;;;;;;;;;;;;2575598;23;19903;-89
2022/05/13 07:01:21;;;;;;;;;;;;;;;;;;;;;
2022/05/13 07:02:45;;;;;;;;;;;;;;;;;;2566220;23;20236;-89
2022/05/13 07:03:48;;;;;;;;;;;;;;;;;;2562723;23;19986;-86
2022/05/13 07:05:11;;;;;;;;;;;;;;;;;;2563257;23;19903;-88
2022/05/13 07:06:16;;;;;;;;;;;;;;;;;;2574306;23;19966;-89
2022/05/13 07:07:42;;;;;;;;;;;;;;;;;;2575144;23;19899;-89
2022/05/13 07:08:51;;;;;;;;;;;;;;;;;;2575651;23;19908;-90
2022/05/13 07:09:54;;;;;;;;;;;;;;;;;;2575614;23;19916;-91
2022/05/13 07:11:04;;;;;;;;;;;;;;;;;;2575230;23;19904;-92
2022/05/13 07:12:07;;;;;;;;;;;;;;;;;;2574367;23;20274;-93
2022/05/13 07:13:14;;;;;;;;;;;;;;;;;;2558462;23;20284;-93
2022/05/13 07:14:29;;;;;;;;;;;;;;;;;;2559628;23;19966;-92
2022/05/13 07:15:30;;;;;;;;;;;;;;;;;;2575508;23;19903;-94
2022/05/13 07:16:42;;;;;;;;;;;;;;;;;;2570655;23;20324;-91
2022/05/13 07:17:45;;;;;;;;;;;;;;;;;;2575214;23;19950;-94
2022/05/13 07:18:53;;;;;;;;;;;;;;;;;;2575500;23;19903;-91
2022/05/13 07:20:03;;;;;;;;;;;;;;;;;;;;;
2022/05/13 07:21:09;;;;;;;;;;;;;;;;;;2564476;23;19927;-91
2022/05/13 07:22:10;;;;;;;;;;;;;;;;;;2575591;23;19911;-92
2022/05/13 07:23:30;;;;;;;;;;;;;;;;;;2570672;23;19934;-87
2022/05/13 07:24:30;;;;;;;;;;;;;;;;;;2575207;23;20473;-89
2022/05/13 07:25:41;;;;;;;;;;;;;;;;;;2575614;23;19908;-88
2022/05/13 07:27:04;;;;;;;;;;;;;;;;;;2575528;23;19990;-95
2022/05/13 07:28:04;;;;;;;;;;;;;;;;;;2575114;23;19904;-91
2022/05/13 07:31:05;;;;;;;;;;;;;;;;;;;;;
2022/05/13 07:32:25;;;;;;;;;;;;;;;;;;2557877;23;19931;-89
2022/05/13 07:33:31;;;;;;;;;;;;;;;;;;2570598;23;20397;-89
2022/05/13 07:34:31;;;;;;;;;;;;;;;;;;2574970;23;20014;-91
2022/05/13 07:35:32;;;;;;;;;;;;;;;;;;2575527;23;20011;-90
2022/05/13 07:36:32;;;;;;;;;;;;;;;;;;2575538;23;19904;-90
2022/05/13 07:37:32;;;;;;;;;;;;;;;;;;2575523;23;19910;-89
2022/05/13 07:38:35;;;;;;;;;;;;;;;;;;2575445;23;19904;-91
2022/05/13 07:42:13;;;;;;;;;;;;;;;;;;2575280;23;19918;-91
2022/05/13 07:43:13;;;;;;;;;;;;;;;;;;2575256;23;19928;-93
2022/05/13 07:44:14;;;;;;;;;;;;;;;;;;2575267;23;19950;-94
2022/05/13 07:45:19;;;;;;;;;;;;;;;;;;2570452;23;19935;-95
2022/05/13 07:46:20;;;;;;;;;;;;;;;;;;2574736;23;19904;-91
2022/05/13 07:47:20;;;;;;;;;;;;;;;;;;2558160;23;20312;-93
2022/05/13 07:48:20;;;;;;;;;;;;;;;;;;2545664;23;19980;-93
2022/05/13 07:49:26;;;;;;;;;;;;;;;;;;2545678;23;19908;-93
2022/05/13 07:50:30;;;;;;;;;;;;;;;;;;2558998;23;19904;-91
2022/05/13 07:51:30;;;;;;;;;;;;;;;;;;2573990;23;20307;-93
2022/05/13 07:52:30;;;;;;;;;;;;;;;;;;2558035;23;19912;-91
2022/05/13 07:53:33;;;;;;;;;;;;;;;;;;2562025;23;19912;-90
2022/05/13 07:55:00;;;;;;;;;;;;;;;;;;2570515;23;19910;-92
2022/05/13 07:56:11;;;;;;;;;;;;;;;;;;2562297;23;19904;-92
2022/05/13 07:57:14;;;;;;;;;;;;;;;;;;2560447;23;20251;-92
2022/05/13 07:58:17;;;;;;;;;;;;;;;;;;2570776;23;19994;-94
2022/05/13 07:59:18;;;;;;;;;;;;;;;;;;2558155;23;19970;-92
2022/05/13 08:00:48;;;;;;;;;;;;;;;;;;;;;
2022/05/13 08:01:49;;;;;;;;;;;;;;;;;;2562506;23;19927;-90
2022/05/13 08:04:15;;;;;;;;;;;;;;;;;;2540310;23;20230;-90
2022/05/13 08:05:16;;;;;;;;;;;;;;;;;;2562958;23;19943;-93
2022/05/13 08:09:37;;;;;;;;;;;;;;;;;;2558901;23;20279;-90
2022/05/13 08:11:17;;;;;;;;;;;;;;;;;;2563015;23;19904;-86
2022/05/13 08:12:34;;;;;;;;;;;;;;;;;;2549376;23;20323;-91
2022/05/13 08:13:41;;;;;;;;;;;;;;;;;;2558802;23;19932;-94
2022/05/13 08:15:23;;;;;;;;;;;;;;;;;;2563035;23;19912;-92
2022/05/13 08:16:26;;;;;;;;;;;;;;;;;;2558321;23;20345;-90
2022/05/13 08:19:10;;;;;;;;;;;;;;;;;;2557935;23;19904;-87
2022/05/13 08:20:20;;;;;;;;;;;;;;;;;;2558146;23;19911;-91
2022/05/13 08:21:48;;;;;;;;;;;;;;;;;;2546346;23;19904;-91
2022/05/13 08:24:12;;;;;;;;;;;;;;;;;;2552523;23;19911;-93
2022/05/13 08:25:32;;;;;;;;;;;;;;;;;;2562737;23;20292;-91
2022/05/13 08:26:45;;;;;;;;;;;;;;;;;;2556461;23;20290;-91
2022/05/13 08:28:11;;;;;;;;;;;;;;;;;;2557691;23;20223;-93
2022/05/13 08:29:37;;;;;;;;;;;;;;;;;;2563147;23;19938;-92
2022/05/13 08:31:02;;;;;;;;;;;;;;;;;;2565650;23;19978;-92
2022/05/13 08:32:10;;;;;;;;;;;;;;;;;;2557991;23;19914;-91
2022/05/13 08:33:41;;;;;;;;;;;;;;;;;;2557770;23;20234;-92
2022/05/13 08:35:16;;;;;;;;;;;;;;;;;;;;;
2022/05/13 08:36:21;;;;;;;;;;;;;;;;;;2550773;23;19904;-87
2022/05/13 08:37:25;;;;;;;;;;;;;;;;;;2562915;23;19908;-94
2022/05/13 08:40:10;;;;;;;;;;;;;;;;;;2557456;23;20356;-92
2022/05/13 08:41:28;;;;;;;;;;;;;;;;;;2562540;23;20296;-92
2022/05/13 08:42:45;;;;;;;;;;;;;;;;;;;;;
2022/05/13 08:43:52;;;;;;;;;;;;;;;;;;2562831;23;19974;-93
2022/05/13 08:44:53;;;;;;;;;;;;;;;;;;2558032;23;20323;-89
2022/05/13 08:45:55;;;;;;;;;;;;;;;;;;2562164;23;19907;-92
2022/05/13 08:47:08;;;;;;;;;;;;;;;;;;2562613;23;19908;-93
2022/05/13 08:48:31;;;;;;;;;;;;;;;;;;2562826;23;19939;-92
2022/05/13 08:49:49;;;;;;;;;;;;;;;;;;2558070;23;19916;-87
2022/05/13 08:51:22;;;;;;;;;;;;;;;;;;2562027;23;19904;-90
2022/05/13 08:54:34;;;;;;;;;;;;;;;;;;2562545;23;19904;-91
2022/05/13 08:56:06;;;;;;;;;;;;;;;;;;2557681;23;19904;-90
2022/05/13 08:59:12;;;;;;;;;;;;;;;;;;2546706;23;20216;-91
2022/05/13 09:02:07;;;;;;;;;;;;;;;;;;2552556;23;19908;-90
2022/05/13 09:03:28;;;;;;;;;;;;;;;;;;2549217;23;19956;-94
2022/05/13 09:04:44;;;;;;;;;;;;;;;;;;2554127;23;19970;-93
2022/05/13 09:06:41;;;;;;;;;;;;;;;;;;;;;
2022/05/13 09:07:54;;;;;;;;;;;;;;;;;;;;;
2022/05/13 09:09:07;;;;;;;;;;;;;;;;;;;;;
2022/05/13 09:11:47;;;;;;;;;;;;;;;;;;2557882;23;19912;-91
2022/05/13 09:13:00;;;;;;;;;;;;;;;;;;2561421;23;19904;-91
2022/05/13 09:14:24;;;;;;;;;;;;;;;;;;2548138;23;20316;-89
2022/05/13 09:15:38;;;;;;;;;;;;;;;;;;2562224;23;19979;-92
2022/05/13 09:16:38;;;;;;;;;;;;;;;;;;2562338;23;20044;-92
2022/05/13 09:17:59;;;;;;;;;;;;;;;;;;2562586;23;19908;-92
2022/05/13 09:19:11;;;;;;;;;;;;;;;;;;2562724;23;19904;-88
2022/05/13 09:20:15;;;;;;;;;;;;;;;;;;2561865;23;19908;-92
2022/05/13 09:21:23;;;;;;;;;;;;;;;;;;2562166;23;20308;-91
2022/05/13 09:22:46;;;;;;;;;;;;;;;;;;2562869;23;19904;-89
2022/05/13 09:23:46;;;;;;;;;;;;;;;;;;2534737;23;19904;-91
2022/05/13 09:26:38;;;;;;;;;;;;;;;;;;2541100;23;20236;-93
2022/05/13 09:28:15;;;;;;;;;;;;;;;;;;;;;
2022/05/13 09:31:38;;;;;;;;;;;;;;;;;;;;;
2022/05/13 09:32:51;;;;;;;;;;;;;;;;;;2537409;23;19904;-90
2022/05/13 09:33:59;;;;;;;;;;;;;;;;;;2532522;23;19908;-89
2022/05/13 09:35:13;;;;;;;;;;;;;;;;;;2537683;23;19905;-89
2022/05/13 09:36:40;;;;;;;;;;;;;;;;;;2538176;23;19943;-87
2022/05/13 09:37:51;;;;;;;;;;;;;;;;;;2558066;23;19904;-86
2022/05/13 09:39:05;;;;;;;;;;;;;;;;;;2557694;23;19911;-88
2022/05/13 09:41:11;;;;;;;;;;;;;;;;;;2562140;23;19927;-90
2022/05/13 09:42:14;;;;;;;;;;;;;;;;;;2552636;23;20402;-87
2022/05/13 09:43:32;;;;;;;;;;;;;;;;;;2557672;23;20254;-91
2022/05/13 09:44:56;;;;;;;;;;;;;;;;;;;;;
2022/05/13 09:46:10;;;;;;;;;;;;;;;;;;2562461;23;20354;-91
2022/05/13 09:47:24;;;;;;;;;;;;;;;;;;2557700;23;19983;-89
2022/05/13 09:48:24;;;;;;;;;;;;;;;;;;2546982;23;19908;-90
2022/05/13 09:49:36;;;;;;;;;;;;;;;;;;2561969;23;20036;-90
2022/05/13 09:51:02;;;;;;;;;;;;;;;;;;2558584;23;20111;-94
2022/05/13 09:52:14;;;;;;;;;;;;;;;;;;2552897;23;19912;-88
2022/05/13 09:56:21;;;;;;;;;;;;;;;;;;2564850;23;20334;-89
2022/05/13 09:59:36;;;;;;;;;;;;;;;;;;2561334;23;19904;-90
2022/05/13 10:00:47;;;;;;;;;;;;;;;;;;2566573;23;20065;-90
2022/05/13 10:01:53;;;;;;;;;;;;;;;;;;2573484;23;19914;-85
2022/05/13 10:03:09;;;;;;;;;;;;;;;;;;2570857;23;19942;-89
2022/05/13 10:04:38;;;;;;;;;;;;;;;;;;2574786;23;19908;-89
2022/05/13 10:05:48;;;;;;;;;;;;;;;;;;2556999;23;19904;-90
2022/05/13 10:07:10;;;;;;;;;;;;;;;;;;2574173;23;20243;-91
2022/05/13 10:08:14;;;;;;;;;;;;;;;;;;2569071;23;19910;-86
2022/05/13 10:14:36;;;;;;;;;;;;;;;;;;;;;
2022/05/13 10:17:49;;;;;;;;;;;;;;;;;;2559407;23;19903;-88
2022/05/13 10:19:11;;;;;;;;;;;;;;;;;;2545855;23;19904;-92
2022/05/13 10:20:46;;;;;;;;;;;;;;;;;;2561967;23;20227;-92
2022/05/13 10:22:13;;;;;;;;;;;;;;;;;;2562501;23;19983;-94